createdAt,value
2023-03-17T00:00:36.960Z,8.383
2023-03-17T00:01:36.137Z,8.412
2023-03-17T00:02:35.735Z,8.375
2023-03-17T00:03:35.883Z,8.375
2023-03-17T00:04:35.678Z,8.375
2023-03-17T00:05:36.130Z,8.399
2023-03-17T00:06:34.679Z,8.419
2023-03-17T00:07:34.626Z,8.437
2023-03-17T00:08:35.039Z,8.437
2023-03-17T00:09:34.992Z,8.437
2023-03-17T00:10:34.829Z,8.410
2023-03-17T00:11:35.600Z,8.437
2023-03-17T00:12:35.589Z,8.416
2023-03-17T00:13:40.191Z,8.424
2023-03-17T00:14:35.468Z,8.426
2023-03-17T00:15:43.431Z,8.437
2023-03-17T00:16:35.099Z,8.437
2023-03-17T00:17:34.840Z,8.437
2023-03-17T00:18:35.002Z,8.426
2023-03-17T00:19:34.584Z,8.385
2023-03-17T00:20:35.086Z,8.375
2023-03-17T00:21:34.600Z,8.375
2023-03-17T00:22:35.206Z,8.395
2023-03-17T00:23:34.974Z,8.385
2023-03-17T00:24:35.343Z,8.375
2023-03-17T00:25:35.124Z,8.375
2023-03-17T00:26:34.623Z,8.375
2023-03-17T00:27:35.501Z,6.900
2023-03-17T00:28:34.977Z,8.375
2023-03-17T00:29:34.018Z,8.375
2023-03-17T00:30:35.126Z,8.375
2023-03-17T00:31:35.010Z,8.375
2023-03-17T00:32:34.807Z,8.375
2023-03-17T00:33:35.226Z,8.375
2023-03-17T00:34:34.738Z,8.375
2023-03-17T00:35:35.110Z,8.375
2023-03-17T00:36:34.496Z,8.375
2023-03-17T00:37:34.834Z,8.375
2023-03-17T00:38:35.021Z,8.364
2023-03-17T00:39:34.461Z,8.333
2023-03-17T00:40:34.878Z,8.354
2023-03-17T00:41:34.896Z,8.375
2023-03-17T00:42:35.780Z,8.343
2023-03-17T00:43:34.989Z,8.312
2023-03-17T00:44:34.568Z,8.312
2023-03-17T00:45:35.613Z,8.312
2023-03-17T00:46:35.316Z,8.312
2023-03-17T00:47:34.932Z,8.312
2023-03-17T00:48:35.023Z,8.312
2023-03-17T00:49:34.669Z,8.312
2023-03-17T00:50:35.381Z,8.312
2023-03-17T00:51:34.733Z,8.312
2023-03-17T00:52:35.342Z,8.301
2023-03-17T00:53:34.565Z,8.312
2023-03-17T00:54:35.149Z,8.312
2023-03-17T00:55:34.527Z,8.312
2023-03-17T00:56:34.775Z,8.312
2023-03-17T00:57:35.029Z,8.312
2023-03-17T00:58:34.692Z,8.312
2023-03-17T00:59:35.326Z,8.312
2023-03-17T01:00:36.629Z,8.312
2023-03-17T01:01:39.258Z,8.312
2023-03-17T01:02:34.958Z,8.312
2023-03-17T01:03:35.190Z,8.312
2023-03-17T01:04:34.781Z,8.312
2023-03-17T01:05:35.233Z,8.312
2023-03-17T01:06:35.059Z,8.312
2023-03-17T01:07:34.944Z,8.312
2023-03-17T01:08:35.385Z,8.312
2023-03-17T01:09:35.144Z,8.312
2023-03-17T01:10:35.139Z,8.312
2023-03-17T01:11:34.882Z,8.312
2023-03-17T01:12:35.110Z,8.312
2023-03-17T01:13:34.228Z,8.312
2023-03-17T01:14:37.434Z,8.312
2023-03-17T01:15:35.697Z,8.312
2023-03-17T01:16:35.396Z,8.312
2023-03-17T01:17:35.326Z,8.312
2023-03-17T01:18:35.058Z,8.312
2023-03-17T01:20:35.420Z,8.312
2023-03-17T01:21:35.070Z,8.312
2023-03-17T01:22:34.362Z,8.312
2023-03-17T01:23:34.737Z,8.312
2023-03-17T01:24:34.939Z,8.312
2023-03-17T01:25:35.495Z,8.312
2023-03-17T01:26:36.281Z,8.312
2023-03-17T01:27:34.821Z,8.312
2023-03-17T01:28:34.829Z,8.312
2023-03-17T01:29:35.193Z,8.312
2023-03-17T01:30:35.485Z,8.312
2023-03-17T01:31:34.730Z,8.312
2023-03-17T01:32:35.299Z,8.312
2023-03-17T01:33:34.727Z,8.312
2023-03-17T01:34:35.021Z,8.312
2023-03-17T01:35:35.134Z,8.312
2023-03-17T01:36:35.033Z,8.312
2023-03-17T01:37:34.920Z,8.312
2023-03-17T01:38:35.349Z,8.312
2023-03-17T01:39:35.036Z,8.312
2023-03-17T01:40:35.118Z,8.312
2023-03-17T01:41:34.983Z,8.312
2023-03-17T01:42:34.741Z,8.312
2023-03-17T01:43:35.330Z,8.312
2023-03-17T01:44:34.932Z,8.312
2023-03-17T01:45:35.528Z,8.312
2023-03-17T01:46:35.104Z,8.312
2023-03-17T01:47:34.888Z,8.312
2023-03-17T01:48:35.570Z,8.312
2023-03-17T01:49:35.086Z,8.312
2023-03-17T01:50:34.692Z,8.303
2023-03-17T01:51:35.359Z,8.312
2023-03-17T01:52:34.995Z,8.312
2023-03-17T01:53:35.166Z,8.287
2023-03-17T01:54:34.777Z,8.281
2023-03-17T01:55:35.470Z,8.291
2023-03-17T01:56:34.670Z,8.25
2023-03-17T01:57:35.017Z,8.270
2023-03-17T01:58:34.974Z,8.25
2023-03-17T01:59:34.602Z,8.25
2023-03-17T02:00:36.747Z,8.260
2023-03-17T02:01:36.172Z,8.291
2023-03-17T02:02:35.281Z,8.260
2023-03-17T02:03:35.448Z,8.281
2023-03-17T02:04:35.509Z,8.270
2023-03-17T02:05:35.322Z,8.281
2023-03-17T02:06:37.008Z,8.270
2023-03-17T02:07:35.005Z,8.301
2023-03-17T02:08:34.904Z,8.291
2023-03-17T02:09:35.452Z,8.291
2023-03-17T02:10:35.279Z,8.291
2023-03-17T02:11:35.400Z,8.25
2023-03-17T02:12:35.422Z,8.270
2023-03-17T02:13:35.272Z,8.25
2023-03-17T02:14:34.918Z,8.281
2023-03-17T02:15:36.364Z,8.260
2023-03-17T02:16:34.833Z,8.25
2023-03-17T02:17:35.687Z,8.25
2023-03-17T02:18:35.418Z,8.25
2023-03-17T02:19:35.316Z,8.25
2023-03-17T02:20:35.571Z,8.270
2023-03-17T02:21:35.100Z,8.281
2023-03-17T02:22:34.969Z,8.291
2023-03-17T02:23:35.026Z,8.260
2023-03-17T02:24:34.634Z,8.25
2023-03-17T02:25:35.535Z,8.260
2023-03-17T02:26:34.502Z,8.291
2023-03-17T02:27:35.004Z,8.260
2023-03-17T02:28:34.864Z,8.25
2023-03-17T02:29:34.946Z,8.25
2023-03-17T02:30:35.653Z,8.260
2023-03-17T02:31:35.932Z,8.270
2023-03-17T02:32:35.555Z,8.281
2023-03-17T02:33:35.431Z,8.270
2023-03-17T02:34:35.379Z,8.270
2023-03-17T02:35:35.194Z,8.25
2023-03-17T02:36:35.225Z,8.25
2023-03-17T02:37:35.012Z,8.25
2023-03-17T02:38:34.685Z,8.25
2023-03-17T02:39:34.955Z,8.25
2023-03-17T02:40:35.326Z,8.25
2023-03-17T02:41:34.587Z,8.25
2023-03-17T02:42:35.170Z,8.25
2023-03-17T02:43:35.105Z,8.25
2023-03-17T02:44:34.858Z,8.25
2023-03-17T02:45:35.884Z,8.25
2023-03-17T02:46:43.356Z,8.25
2023-03-17T02:47:35.574Z,8.25
2023-03-17T02:48:35.370Z,8.25
2023-03-17T02:49:34.742Z,8.239
2023-03-17T02:50:34.751Z,8.25
2023-03-17T02:51:35.460Z,8.25
2023-03-17T02:52:34.513Z,8.25
2023-03-17T02:53:35.268Z,8.25
2023-03-17T02:54:35.404Z,8.25
2023-03-17T02:55:35.357Z,8.25
2023-03-17T02:56:35.022Z,8.25
2023-03-17T02:57:34.165Z,8.25
2023-03-17T02:58:35.155Z,8.25
2023-03-17T02:59:34.941Z,8.25
2023-03-17T03:00:50.443Z,8.25
2023-03-17T03:01:35.680Z,8.25
2023-03-17T03:02:35.619Z,8.25
2023-03-17T03:03:35.654Z,8.25
2023-03-17T03:04:35.364Z,8.239
2023-03-17T03:05:34.950Z,8.229
2023-03-17T03:06:35.577Z,8.239
2023-03-17T03:07:34.456Z,8.229
2023-03-17T03:08:34.719Z,8.208
2023-03-17T03:09:34.995Z,8.187
2023-03-17T03:10:35.184Z,8.187
2023-03-17T03:11:35.055Z,8.187
2023-03-17T03:12:42.439Z,8.187
2023-03-17T03:13:34.999Z,8.187
2023-03-17T03:14:56.900Z,8.187
2023-03-17T03:15:36.305Z,8.187
2023-03-17T03:16:35.443Z,8.187
2023-03-17T03:17:34.502Z,8.187
2023-03-17T03:18:34.689Z,8.187
2023-03-17T03:19:35.035Z,8.187
2023-03-17T03:20:34.350Z,8.187
2023-03-17T03:21:35.486Z,8.187
2023-03-17T03:22:34.807Z,8.187
2023-03-17T03:23:35.066Z,8.187
2023-03-17T03:24:34.435Z,8.187
2023-03-17T03:25:34.817Z,8.187
2023-03-17T03:26:35.608Z,8.187
2023-03-17T03:27:34.812Z,8.187
2023-03-17T03:28:35.090Z,8.187
2023-03-17T03:29:34.900Z,8.187
2023-03-17T03:30:36.418Z,8.187
2023-03-17T03:31:34.911Z,8.187
2023-03-17T03:32:35.345Z,8.166
2023-03-17T03:33:35.368Z,8.176
2023-03-17T03:34:35.044Z,8.145
2023-03-17T03:35:35.505Z,8.166
2023-03-17T03:36:35.173Z,8.145
2023-03-17T03:37:34.730Z,8.125
2023-03-17T03:38:35.201Z,8.125
2023-03-17T03:39:34.898Z,8.125
2023-03-17T03:40:35.376Z,8.125
2023-03-17T03:41:34.579Z,8.125
2023-03-17T03:42:34.782Z,8.125
2023-03-17T03:43:37.443Z,8.125
2023-03-17T03:44:34.708Z,8.125
2023-03-17T03:45:35.635Z,8.114
2023-03-17T03:46:35.141Z,8.114
2023-03-17T03:47:34.760Z,8.125
2023-03-17T03:48:35.195Z,8.114
2023-03-17T03:49:34.610Z,8.114
2023-03-17T03:50:35.461Z,8.093
2023-03-17T03:51:35.088Z,8.083
2023-03-17T03:52:35.208Z,8.062
2023-03-17T03:53:34.609Z,8.062
2023-03-17T03:54:35.020Z,8.062
2023-03-17T03:55:34.781Z,8.062
2023-03-17T03:56:35.293Z,8.062
2023-03-17T03:57:34.353Z,8.062
2023-03-17T03:58:34.521Z,8.062
2023-03-17T03:59:34.897Z,8.062
2023-03-17T04:00:36.777Z,8.062
2023-03-17T04:01:35.731Z,8.062
2023-03-17T04:02:36.026Z,8.062
2023-03-17T04:03:34.444Z,8.062
2023-03-17T04:04:34.930Z,8.051
2023-03-17T04:05:34.550Z,8
2023-03-17T04:06:35.411Z,8.041
2023-03-17T04:07:35.036Z,8
2023-03-17T04:08:34.822Z,8
2023-03-17T04:09:35.226Z,8
2023-03-17T04:10:35.158Z,8
2023-03-17T04:11:34.947Z,8
2023-03-17T04:13:35.384Z,8
2023-03-17T04:14:34.808Z,8
2023-03-17T04:15:35.579Z,8
2023-03-17T04:16:35.712Z,7.936
2023-03-17T04:17:35.541Z,7.936
2023-03-17T04:18:35.074Z,7.936
2023-03-17T04:19:34.324Z,7.936
2023-03-17T04:20:34.756Z,7.936
2023-03-17T04:21:35.716Z,7.936
2023-03-17T04:22:34.932Z,7.936
2023-03-17T04:23:35.310Z,7.936
2023-03-17T04:24:34.957Z,7.936
2023-03-17T04:25:35.343Z,7.936
2023-03-17T04:26:35.304Z,7.936
2023-03-17T04:27:35.216Z,7.936
2023-03-17T04:28:34.600Z,7.936
2023-03-17T04:29:34.408Z,7.936
2023-03-17T04:30:35.452Z,7.936
2023-03-17T04:31:34.647Z,7.936
2023-03-17T04:32:34.972Z,7.936
2023-03-17T04:33:34.972Z,7.936
2023-03-17T04:34:35.184Z,7.936
2023-03-17T04:35:35.386Z,7.936
2023-03-17T04:36:35.135Z,7.936
2023-03-17T04:37:34.843Z,7.936
2023-03-17T04:38:35.462Z,7.936
2023-03-17T04:39:34.919Z,7.936
2023-03-17T04:40:35.268Z,7.936
2023-03-17T04:41:34.812Z,7.936
2023-03-17T04:42:35.149Z,7.916
2023-03-17T04:43:34.819Z,7.875
2023-03-17T04:44:35.246Z,7.919
2023-03-17T04:45:35.140Z,7.936
2023-03-17T04:46:35.529Z,7.910
2023-03-17T04:47:34.856Z,7.875
2023-03-17T04:48:35.202Z,7.928
2023-03-17T04:49:34.530Z,7.936
2023-03-17T04:50:35.476Z,7.936
2023-03-17T04:51:35.328Z,7.936
2023-03-17T04:52:34.590Z,7.936
2023-03-17T04:53:35.370Z,7.936
2023-03-17T04:54:34.723Z,7.936
2023-03-17T04:55:35.846Z,7.936
2023-03-17T04:56:35.379Z,7.936
2023-03-17T04:57:34.798Z,7.936
2023-03-17T04:58:44.208Z,7.936
2023-03-17T04:59:35.168Z,7.974
2023-03-17T05:00:36.173Z,8
2023-03-17T05:01:40.684Z,8
2023-03-17T05:02:35.572Z,8
2023-03-17T05:03:40.827Z,8
2023-03-17T05:04:45.287Z,8
2023-03-17T05:05:35.167Z,8
2023-03-17T05:06:35.059Z,8
2023-03-17T05:07:35.302Z,8.010
2023-03-17T05:08:35.395Z,8.062
2023-03-17T05:09:35.257Z,8.041
2023-03-17T05:10:34.937Z,8.062
2023-03-17T05:11:35.082Z,8.062
2023-03-17T05:12:34.978Z,8.062
2023-03-17T05:13:34.301Z,8.062
2023-03-17T05:14:35.010Z,8.062
2023-03-17T05:15:35.201Z,8.062
2023-03-17T05:16:35.119Z,8.062
2023-03-17T05:17:35.279Z,8.062
2023-03-17T05:18:34.717Z,8.062
2023-03-17T05:19:34.924Z,8.062
2023-03-17T05:20:35.685Z,8.062
2023-03-17T05:21:35.407Z,8.062
2023-03-17T05:22:35.528Z,8.083
2023-03-17T05:23:35.120Z,8.104
2023-03-17T05:24:34.580Z,8.114
2023-03-17T05:25:35.879Z,8.125
2023-03-17T05:26:35.828Z,8.125
2023-03-17T05:27:35.578Z,8.125
2023-03-17T05:28:35.230Z,8.125
2023-03-17T05:29:34.878Z,8.125
2023-03-17T05:30:35.943Z,8.125
2023-03-17T05:31:35.577Z,8.125
2023-03-17T05:32:35.013Z,8.125
2023-03-17T05:33:35.206Z,8.125
2023-03-17T05:34:35.030Z,8.125
2023-03-17T05:35:40.857Z,8.125
2023-03-17T05:36:35.599Z,8.125
2023-03-17T05:37:40.374Z,8.125
2023-03-17T05:38:34.892Z,8.135
2023-03-17T05:39:35.653Z,8.176
2023-03-17T05:40:37.453Z,8.166
2023-03-17T05:41:34.827Z,8.187
2023-03-17T05:42:35.299Z,8.187
2023-03-17T05:43:35.249Z,8.187
2023-03-17T05:44:35.288Z,8.187
2023-03-17T05:45:35.255Z,8.187
2023-03-17T05:46:34.906Z,8.187
2023-03-17T05:47:35.557Z,8.187
2023-03-17T05:48:35.283Z,8.187
2023-03-17T05:49:35.465Z,8.187
2023-03-17T05:50:35.143Z,8.187
2023-03-17T05:51:36.896Z,8.187
2023-03-17T05:52:35.704Z,8.187
2023-03-17T05:53:35.306Z,8.187
2023-03-17T05:54:35.048Z,8.187
2023-03-17T05:55:35.511Z,8.187
2023-03-17T05:56:35.424Z,8.187
2023-03-17T05:57:34.768Z,8.208
2023-03-17T05:58:35.465Z,8.25
2023-03-17T05:59:35.022Z,8.218
2023-03-17T06:00:36.198Z,8.239
2023-03-17T06:01:35.370Z,8.229
2023-03-17T06:02:35.216Z,8.25
2023-03-17T06:03:34.824Z,8.218
2023-03-17T06:04:35.353Z,8.25
2023-03-17T06:05:35.849Z,8.25
2023-03-17T06:06:35.118Z,8.25
2023-03-17T06:07:44.897Z,8.25
2023-03-17T06:08:35.021Z,8.25
2023-03-17T06:09:35.418Z,8.25
2023-03-17T06:10:35.799Z,8.25
2023-03-17T06:11:36.261Z,8.25
2023-03-17T06:12:35.739Z,8.25
2023-03-17T06:13:35.261Z,8.25
2023-03-17T06:14:34.740Z,8.25
2023-03-17T06:15:35.757Z,8.25
2023-03-17T06:16:35.720Z,8.25
2023-03-17T06:17:35.400Z,8.25
2023-03-17T06:18:34.987Z,8.25
2023-03-17T06:19:34.861Z,8.25
2023-03-17T06:20:35.209Z,8.25
2023-03-17T06:21:35.051Z,8.25
2023-03-17T06:22:35.244Z,8.25
2023-03-17T06:23:35.055Z,8.25
2023-03-17T06:24:35.428Z,8.25
2023-03-17T06:25:35.654Z,8.25
2023-03-17T06:26:35.333Z,8.25
2023-03-17T06:27:35.653Z,8.25
2023-03-17T06:28:35.065Z,8.25
2023-03-17T06:29:35.164Z,8.25
2023-03-17T06:30:35.212Z,8.25
2023-03-17T06:31:34.944Z,8.25
2023-03-17T06:32:34.766Z,8.312
2023-03-17T06:33:36.816Z,8.312
2023-03-17T06:34:36.382Z,8.301
2023-03-17T06:35:36.793Z,8.260
2023-03-17T06:36:38.497Z,8.25
2023-03-17T06:37:35.546Z,8.301
2023-03-17T06:38:35.291Z,8.312
2023-03-17T06:39:35.149Z,8.312
2023-03-17T06:40:35.431Z,8.312
2023-03-17T06:41:35.467Z,8.301
2023-03-17T06:42:35.550Z,8.312
2023-03-17T06:43:35.394Z,8.312
2023-03-17T06:44:35.108Z,8.312
2023-03-17T06:45:35.228Z,8.312
2023-03-17T06:46:35.133Z,6.900
2023-03-17T06:47:34.651Z,8.312
2023-03-17T06:48:35.644Z,8.312
2023-03-17T06:49:35.608Z,8.312
2023-03-17T06:50:35.970Z,8.312
2023-03-17T06:51:35.898Z,8.322
2023-03-17T06:52:36.482Z,8.312
2023-03-17T06:53:35.529Z,8.312
2023-03-17T06:54:36.395Z,8.312
2023-03-17T06:55:36.768Z,8.312
2023-03-17T06:56:44.444Z,8.312
2023-03-17T06:57:37.399Z,8.312
2023-03-17T06:58:35.586Z,8.312
2023-03-17T06:59:36.144Z,8.312
2023-03-17T07:00:36.893Z,8.312
2023-03-17T07:01:36.578Z,8.333
2023-03-17T07:02:35.808Z,8.312
2023-03-17T07:03:38.200Z,8.343
2023-03-17T07:04:35.849Z,8.364
2023-03-17T07:05:37.764Z,8.364
2023-03-17T07:06:36.021Z,8.375
2023-03-17T07:07:35.568Z,8.375
2023-03-17T07:08:35.997Z,8.375
2023-03-17T07:09:35.086Z,8.375
2023-03-17T07:10:35.286Z,8.375
2023-03-17T07:11:35.602Z,8.375
2023-03-17T07:12:35.888Z,8.375
2023-03-17T07:13:35.901Z,8.375
2023-03-17T07:14:36.337Z,8.375
2023-03-17T07:15:36.793Z,8.375
2023-03-17T07:16:36.052Z,8.375
2023-03-17T07:17:35.462Z,8.375
2023-03-17T07:18:35.978Z,8.375
2023-03-17T07:19:35.231Z,8.375
2023-03-17T07:20:40.348Z,8.375
2023-03-17T07:21:35.281Z,8.375
2023-03-17T07:22:35.437Z,8.426
2023-03-17T07:23:35.327Z,8.426
2023-03-17T07:24:35.302Z,8.437
2023-03-17T07:25:35.715Z,8.437
2023-03-17T07:26:35.258Z,8.437
2023-03-17T07:27:36.566Z,8.416
2023-03-17T07:28:35.259Z,8.437
2023-03-17T07:29:35.704Z,8.437
2023-03-17T07:30:41.188Z,8.437
2023-03-17T07:31:35.950Z,8.437
2023-03-17T07:32:35.390Z,8.437
2023-03-17T07:33:35.480Z,8.437
2023-03-17T07:34:43.978Z,8.406
2023-03-17T07:35:38.269Z,8.406
2023-03-17T07:36:43.866Z,8.437
2023-03-17T07:37:36.300Z,8.437
2023-03-17T07:38:35.404Z,8.437
2023-03-17T07:39:35.748Z,8.437
2023-03-17T07:40:36.176Z,8.437
2023-03-17T07:41:35.488Z,8.437
2023-03-17T07:42:36.112Z,8.437
2023-03-17T07:43:35.266Z,8.437
2023-03-17T07:44:36.144Z,8.437
2023-03-17T07:45:36.547Z,8.437
2023-03-17T07:46:35.561Z,8.447
2023-03-17T07:47:35.779Z,8.437
2023-03-17T07:48:36.517Z,8.458
2023-03-17T07:49:54.180Z,8.449
2023-03-17T07:50:50.090Z,8.437
2023-03-17T07:51:35.591Z,8.437
2023-03-17T07:52:50.019Z,8.437
2023-03-17T07:53:35.118Z,8.437
2023-03-17T07:54:35.415Z,8.437
2023-03-17T07:55:35.551Z,8.437
2023-03-17T07:56:41.439Z,8.437
2023-03-17T07:57:36.222Z,8.437
2023-03-17T07:58:40.849Z,8.437
2023-03-17T07:59:36.663Z,8.437
2023-03-17T08:00:52.702Z,8.437
2023-03-17T08:01:36.894Z,8.437
2023-03-17T08:02:36.111Z,8.437
2023-03-17T08:03:35.767Z,8.449
2023-03-17T08:04:35.966Z,8.446
2023-03-17T08:05:36.470Z,8.437
2023-03-17T08:06:43.578Z,8.437
2023-03-17T08:07:36.176Z,8.437
2023-03-17T08:08:35.244Z,8.447
2023-03-17T08:09:36.149Z,8.468
2023-03-17T08:10:59.131Z,8.5
2023-03-17T08:11:35.916Z,8.5
2023-03-17T08:12:36.762Z,8.489
2023-03-17T08:13:36.286Z,8.5
2023-03-17T08:14:35.476Z,8.5
2023-03-17T08:15:36.532Z,8.5
2023-03-17T08:17:36.138Z,8.5
2023-03-17T08:18:36.101Z,8.5
2023-03-17T08:19:35.615Z,8.5
2023-03-17T08:20:36.164Z,8.5
2023-03-17T08:21:36.115Z,8.5
2023-03-17T08:22:36.101Z,8.5
2023-03-17T08:23:35.402Z,8.5
2023-03-17T08:24:36.373Z,8.5
2023-03-17T08:25:35.642Z,8.5
2023-03-17T08:26:35.965Z,8.5
2023-03-17T08:27:35.911Z,8.5
2023-03-17T08:28:36.004Z,8.5
2023-03-17T08:29:35.967Z,8.510
2023-03-17T08:30:36.677Z,8.541
2023-03-17T08:31:36.556Z,8.562
2023-03-17T08:32:35.953Z,8.562
2023-03-17T08:33:35.598Z,8.562
2023-03-17T08:34:36.380Z,8.562
2023-03-17T08:35:36.336Z,8.562
2023-03-17T08:36:35.589Z,8.562
2023-03-17T08:37:35.924Z,8.551
2023-03-17T08:38:36.036Z,8.551
2023-03-17T08:39:35.363Z,8.562
2023-03-17T08:40:36.165Z,8.562
2023-03-17T08:41:35.894Z,8.562
2023-03-17T08:42:35.195Z,8.562
2023-03-17T08:43:35.756Z,8.562
2023-03-17T08:44:36.211Z,8.562
2023-03-17T08:45:36.155Z,8.562
2023-03-17T08:46:35.135Z,8.562
2023-03-17T08:47:35.737Z,8.562
2023-03-17T08:48:36.117Z,8.562
2023-03-17T08:49:35.810Z,8.562
2023-03-17T08:50:36.637Z,8.562
2023-03-17T08:51:38.176Z,8.562
2023-03-17T08:52:37.117Z,8.562
2023-03-17T08:53:36.410Z,8.562
2023-03-17T08:54:36.222Z,8.562
2023-03-17T08:55:36.041Z,8.562
2023-03-17T08:56:35.976Z,8.562
2023-03-17T08:57:36.917Z,8.562
2023-03-17T08:58:37.376Z,8.562
2023-03-17T08:59:36.462Z,8.562
2023-03-17T09:00:37.687Z,8.614
2023-03-17T09:01:36.399Z,8.604
2023-03-17T09:02:46.554Z,8.614
2023-03-17T09:03:35.919Z,8.625
2023-03-17T09:04:37.766Z,8.625
2023-03-17T09:05:38.291Z,8.625
2023-03-17T09:06:36.487Z,8.625
2023-03-17T09:07:35.755Z,8.625
2023-03-17T09:08:35.863Z,8.625
2023-03-17T09:09:36.275Z,8.625
2023-03-17T09:10:36.142Z,8.625
2023-03-17T09:11:36.040Z,8.625
2023-03-17T09:12:35.982Z,8.625
2023-03-17T09:13:35.796Z,8.625
2023-03-17T09:14:43.339Z,8.625
2023-03-17T09:15:36.691Z,8.625
2023-03-17T09:16:36.022Z,8.625
2023-03-17T09:17:36.737Z,8.625
2023-03-17T09:18:36.643Z,8.625
2023-03-17T09:19:37.050Z,8.625
2023-03-17T09:20:36.816Z,8.625
2023-03-17T09:21:36.418Z,8.625
2023-03-17T09:22:36.026Z,8.625
2023-03-17T09:23:35.485Z,8.625
2023-03-17T09:24:35.641Z,8.625
2023-03-17T09:25:36.235Z,8.637
2023-03-17T09:26:35.835Z,8.678
2023-03-17T09:27:35.871Z,8.687
2023-03-17T09:28:36.337Z,8.687
2023-03-17T09:29:36.048Z,8.687
2023-03-17T09:30:36.025Z,8.704
2023-03-17T09:31:35.930Z,8.712
2023-03-17T09:32:37.290Z,8.687
2023-03-17T09:33:36.285Z,8.687
2023-03-17T09:34:35.631Z,8.687
2023-03-17T09:35:36.973Z,8.687
2023-03-17T09:36:36.375Z,8.687
2023-03-17T09:37:36.507Z,8.687
2023-03-17T09:38:36.334Z,8.687
2023-03-17T09:39:36.328Z,8.687
2023-03-17T09:40:36.844Z,8.697
2023-03-17T09:41:36.582Z,8.697
2023-03-17T09:42:36.789Z,8.687
2023-03-17T09:43:36.559Z,8.687
2023-03-17T09:44:35.940Z,8.687
2023-03-17T09:45:37.201Z,8.687
2023-03-17T09:46:37.010Z,8.708
2023-03-17T09:47:36.926Z,8.718
2023-03-17T09:48:36.712Z,8.75
2023-03-17T09:49:36.130Z,8.739
2023-03-17T09:50:38.599Z,8.739
2023-03-17T09:51:36.584Z,8.75
2023-03-17T09:52:36.026Z,8.75
2023-03-17T09:53:35.957Z,8.75
2023-03-17T09:54:36.262Z,8.75
2023-03-17T09:55:35.830Z,8.75
2023-03-17T09:56:37.326Z,8.75
2023-03-17T09:57:40.945Z,8.75
2023-03-17T09:58:37.060Z,8.75
2023-03-17T09:59:44.031Z,8.75
2023-03-17T10:00:37.400Z,8.75
2023-03-17T10:01:38.052Z,8.75
2023-03-17T10:02:37.021Z,8.75
2023-03-17T10:03:37.069Z,8.75
2023-03-17T10:04:35.846Z,8.760
2023-03-17T10:05:36.525Z,8.75
2023-03-17T10:06:36.909Z,8.812
2023-03-17T10:07:36.364Z,8.812
2023-03-17T10:08:46.185Z,8.812
2023-03-17T10:09:40.303Z,8.812
2023-03-17T10:10:36.812Z,8.812
2023-03-17T10:11:37.403Z,8.812
2023-03-17T10:12:37.215Z,8.812
2023-03-17T10:13:36.340Z,8.812
2023-03-17T10:14:36.841Z,8.812
2023-03-17T10:15:37.087Z,8.812
2023-03-17T10:16:38.661Z,8.812
2023-03-17T10:17:37.974Z,8.812
2023-03-17T10:18:38.047Z,8.812
2023-03-17T10:19:37.672Z,8.812
2023-03-17T10:20:37.359Z,8.812
2023-03-17T10:21:41.437Z,8.812
2023-03-17T10:22:36.812Z,8.822
2023-03-17T10:23:37.467Z,8.875
2023-03-17T10:24:37.787Z,8.875
2023-03-17T10:25:37.243Z,8.854
2023-03-17T10:26:36.968Z,8.854
2023-03-17T10:27:36.812Z,8.875
2023-03-17T10:28:36.122Z,8.875
2023-03-17T10:29:36.831Z,8.875
2023-03-17T10:30:37.761Z,8.875
2023-03-17T10:31:37.628Z,8.875
2023-03-17T10:32:37.507Z,8.875
2023-03-17T10:33:37.520Z,8.875
2023-03-17T10:34:38.135Z,8.875
2023-03-17T10:35:36.642Z,8.875
2023-03-17T10:36:37.503Z,8.875
2023-03-17T10:37:36.804Z,8.875
2023-03-17T10:38:37.021Z,8.875
2023-03-17T10:39:44.879Z,8.875
2023-03-17T10:40:37.533Z,8.875
2023-03-17T10:41:37.031Z,8.875
2023-03-17T10:42:36.837Z,8.875
2023-03-17T10:43:37.669Z,8.875
2023-03-17T10:44:37.039Z,8.875
2023-03-17T10:45:39.095Z,8.875
2023-03-17T10:46:37.191Z,8.875
2023-03-17T10:47:36.749Z,8.875
2023-03-17T10:48:37.342Z,8.875
2023-03-17T10:49:37.225Z,8.916
2023-03-17T10:50:37.092Z,7.400
2023-03-17T10:51:36.614Z,8.937
2023-03-17T10:52:36.823Z,8.937
2023-03-17T10:53:37.901Z,8.937
2023-03-17T10:54:36.969Z,8.937
2023-03-17T10:55:36.609Z,8.937
2023-03-17T10:56:36.591Z,8.937
2023-03-17T10:57:36.749Z,8.937
2023-03-17T10:58:36.217Z,8.937
2023-03-17T10:59:36.164Z,8.937
2023-03-17T11:00:38.598Z,8.937
2023-03-17T11:01:38.522Z,8.937
2023-03-17T11:02:37.813Z,8.937
2023-03-17T11:03:37.375Z,8.937
2023-03-17T11:04:36.753Z,8.937
2023-03-17T11:05:39.069Z,8.937
2023-03-17T11:06:36.175Z,8.937
2023-03-17T11:07:36.114Z,8.937
2023-03-17T11:08:36.553Z,8.937
2023-03-17T11:09:37.156Z,8.937
2023-03-17T11:10:36.343Z,8.937
2023-03-17T11:11:36.469Z,8.937
2023-03-17T11:12:36.588Z,8.937
2023-03-17T11:13:36.774Z,8.937
2023-03-17T11:14:36.642Z,8.947
2023-03-17T11:15:37.144Z,8.958
2023-03-17T11:16:36.848Z,8.968
2023-03-17T11:17:36.752Z,8.979
2023-03-17T11:18:36.838Z,9
2023-03-17T11:19:36.706Z,9
2023-03-17T11:20:37.273Z,9
2023-03-17T11:21:36.625Z,9
2023-03-17T11:22:36.538Z,9
2023-03-17T11:23:36.379Z,9
2023-03-17T11:24:36.074Z,9
2023-03-17T11:25:36.535Z,9
2023-03-17T11:26:36.712Z,9
2023-03-17T11:27:36.612Z,9
2023-03-17T11:28:36.795Z,9
2023-03-17T11:29:36.643Z,9
2023-03-17T11:30:36.873Z,9
2023-03-17T11:31:36.806Z,9
2023-03-17T11:32:37.136Z,9
2023-03-17T11:34:35.566Z,9
2023-03-17T11:35:36.007Z,9
2023-03-17T11:36:36.463Z,9.020
2023-03-17T11:37:37.216Z,9.062
2023-03-17T11:38:36.609Z,9.051
2023-03-17T11:39:36.023Z,9.041
2023-03-17T11:40:36.784Z,9.051
2023-03-17T11:41:36.772Z,9.062
2023-03-17T11:42:37.145Z,9.051
2023-03-17T11:43:36.524Z,9.062
2023-03-17T11:44:36.997Z,9.062
2023-03-17T11:45:37.051Z,9.062
2023-03-17T11:46:36.394Z,9.062
2023-03-17T11:47:36.068Z,9.062
2023-03-17T11:48:36.763Z,9.062
2023-03-17T11:49:36.877Z,9.062
2023-03-17T11:50:36.860Z,9.062
2023-03-17T11:51:37.339Z,9.062
2023-03-17T11:52:35.764Z,9.062
2023-03-17T11:53:36.709Z,9.062
2023-03-17T11:54:35.905Z,9.062
2023-03-17T11:55:38.063Z,9.062
2023-03-17T11:56:36.890Z,9.093
2023-03-17T11:57:37.812Z,9.072
2023-03-17T11:58:36.993Z,9.093
2023-03-17T11:59:37.144Z,9.114
2023-03-17T12:00:37.686Z,9.125
2023-03-17T12:01:37.450Z,9.125
2023-03-17T12:02:36.545Z,9.125
2023-03-17T12:03:36.782Z,9.125
2023-03-17T12:04:37.316Z,9.125
2023-03-17T12:05:38.347Z,9.125
2023-03-17T12:06:37.647Z,9.125
2023-03-17T12:07:37.051Z,9.125
2023-03-17T12:08:35.630Z,9.125
2023-03-17T12:09:36.080Z,9.125
2023-03-17T12:10:35.515Z,9.125
2023-03-17T12:11:36.742Z,9.125
2023-03-17T12:12:41.721Z,9.125
2023-03-17T12:13:36.943Z,9.125
2023-03-17T12:14:41.125Z,9.156
2023-03-17T12:15:36.367Z,9.187
2023-03-17T12:16:36.607Z,9.187
2023-03-17T12:17:40.556Z,9.187
2023-03-17T12:18:36.873Z,9.187
2023-03-17T12:19:37.412Z,9.187
2023-03-17T12:20:37.471Z,9.187
2023-03-17T12:21:37.052Z,9.187
2023-03-17T12:22:36.457Z,9.187
2023-03-17T12:23:36.619Z,9.187
2023-03-17T12:24:36.766Z,9.187
2023-03-17T12:25:37.197Z,9.187
2023-03-17T12:26:44.219Z,9.187
2023-03-17T12:27:36.534Z,9.187
2023-03-17T12:28:36.885Z,9.187
2023-03-17T12:29:36.991Z,9.187
2023-03-17T12:30:36.566Z,9.187
2023-03-17T12:31:38.652Z,9.187
2023-03-17T12:32:37.262Z,9.187
2023-03-17T12:33:36.950Z,7.300
2023-03-17T12:34:37.444Z,9.187
2023-03-17T12:35:38.149Z,9.212
2023-03-17T12:36:37.610Z,9.229
2023-03-17T12:37:36.662Z,9.218
2023-03-17T12:38:37.342Z,9.25
2023-03-17T12:39:37.194Z,9.25
2023-03-17T12:40:39.273Z,7.900
2023-03-17T12:41:36.632Z,9.25
2023-03-17T12:42:36.123Z,9.25
2023-03-17T12:43:36.404Z,9.25
2023-03-17T12:44:41.103Z,9.25
2023-03-17T12:45:36.761Z,9.25
2023-03-17T12:46:42.029Z,9.25
2023-03-17T12:47:35.968Z,9.25
2023-03-17T12:48:37.590Z,9.25
2023-03-17T12:49:36.243Z,9.25
2023-03-17T12:50:55.335Z,9.25
2023-03-17T12:51:38.501Z,9.25
2023-03-17T12:52:55.387Z,9.25
2023-03-17T12:53:35.299Z,9.25
2023-03-17T12:54:42.025Z,9.25
2023-03-17T12:55:35.827Z,9.25
2023-03-17T12:56:36.483Z,9.25
2023-03-17T12:57:36.550Z,9.25
2023-03-17T12:58:35.595Z,9.25
2023-03-17T12:59:35.789Z,9.25
2023-03-17T13:00:43.182Z,9.25
2023-03-17T13:01:37.273Z,9.281
2023-03-17T13:02:44.304Z,9.312
2023-03-17T13:03:36.065Z,9.312
2023-03-17T13:04:36.119Z,9.312
2023-03-17T13:05:36.872Z,9.312